Time;durP1;ratioP1;P1;durP2;ratioP2;P2;SDS_P1;SDS_P2;PMS_P1;PMS_P2;Temp;Humidity;BMP_temperature;BMP_pressure;BME280_temperature;BME280_humidity;BME280_pressure;Samples;Min_cycle;Max_cycle;Signal;HPM_P1;HPM_P2
2021/11/04 00:03:46;;;;;;;42.20;20.70;;;;;;;6.79;100.00;99591.98;708861;1209;114655;-72
2021/11/04 00:18:48;;;;;;;41.95;21.05;;;;;;;6.85;100.00;99618.50;708694;1211;115558;-72
2021/11/04 00:33:56;;;;;;;39.90;21.40;;;;;;;7.06;100.00;99648.02;708778;1209;113942;-72
2021/11/04 00:48:58;;;;;;;38.50;19.90;;;;;;;7.23;100.00;99637.94;708874;1209;114850;-72
2021/11/04 01:04:00;;;;;;;42.63;21.03;;;;;;;7.22;100.00;99646.71;708868;1184;114375;-72
2021/11/04 01:19:02;;;;;;;35.87;18.77;;;;;;;7.40;100.00;99646.95;708983;1209;114634;-74
2021/11/04 01:34:06;;;;;;;33.30;19.40;;;;;;;7.44;100.00;99635.29;708616;1209;115209;-72
2021/11/04 01:49:08;;;;;;;33.05;18.60;;;;;;;7.49;100.00;99631.32;709123;1208;114440;-72
2021/11/04 02:04:30;;;;;;;36.05;19.40;;;;;;;7.47;100.00;99620.20;708728;1212;114497;-72
2021/11/04 02:19:35;;;;;;;36.90;20.30;;;;;;;7.50;100.00;99596.44;708435;1209;114767;-72
2021/11/04 02:34:40;;;;;;;36.35;20.85;;;;;;;7.56;100.00;99615.98;708855;1212;114776;-73
2021/11/04 02:49:45;;;;;;;34.30;18.65;;;;;;;7.59;100.00;99588.80;709197;1208;114464;-73
2021/11/04 03:04:47;;;;;;;47.35;22.80;;;;;;;7.71;100.00;99582.50;708885;1209;114556;-74
2021/11/04 03:19:50;;;;;;;37.37;19.87;;;;;;;7.75;100.00;99565.59;708937;1212;115616;-72
2021/11/04 03:34:53;;;;;;;30.60;18.40;;;;;;;7.72;100.00;99534.55;708541;1209;114276;-73
2021/11/04 03:49:57;;;;;;;35.30;18.80;;;;;;;7.70;100.00;99530.42;709052;1209;114122;-72
2021/11/04 04:04:59;;;;;;;29.35;17.30;;;;;;;7.73;100.00;99509.25;708793;1185;114471;-72
2021/11/04 04:20:02;;;;;;;34.70;19.80;;;;;;;7.77;100.00;99479.30;708657;1212;114292;-72
2021/11/04 04:35:04;;;;;;;29.80;17.60;;;;;;;7.69;100.00;99451.25;708735;1212;114610;-72
2021/11/04 04:50:07;;;;;;;34.73;18.43;;;;;;;7.64;100.00;99456.06;708817;1209;114013;-70
2021/11/04 05:05:11;;;;;;;46.63;26.20;;;;;;;7.74;100.00;99451.67;708719;1212;115332;-70
2021/11/04 05:20:13;;;;;;;40.57;21.77;;;;;;;7.76;100.00;99438.48;709166;1212;114432;-74
2021/11/04 05:35:20;;;;;;;43.50;22.30;;;;;;;7.70;100.00;99465.16;708908;1188;114156;-70
2021/11/04 05:50:22;;;;;;;38.33;19.87;;;;;;;7.77;100.00;99435.75;709202;1184;113891;-73
2021/11/04 06:05:25;;;;;;;42.50;23.60;;;;;;;7.74;100.00;99411.70;709084;1209;114514;-71
2021/11/04 06:20:27;;;;;;;42.88;25.18;;;;;;;7.70;100.00;99403.31;709182;1209;113915;-70
2021/11/04 06:35:29;;;;;;;53.15;27.95;;;;;;;7.90;100.00;99395.46;709133;1212;114004;-74
2021/11/04 06:50:32;;;;;;;79.13;33.97;;;;;;;8.01;100.00;99426.66;708914;1195;114128;-74
2021/11/04 07:05:36;;;;;;;62.70;29.00;;;;;;;8.11;100.00;99396.09;709218;1209;113985;-76
2021/11/04 07:20:45;;;;;;;48.17;23.53;;;;;;;8.24;100.00;99356.61;709082;1209;114053;-74
2021/11/04 07:35:53;;;;;;;51.15;22.30;;;;;;;8.35;100.00;99373.89;708851;1190;113464;-74
2021/11/04 07:50:58;;;;;;;52.90;25.70;;;;;;;8.53;100.00;99354.89;709113;1209;114062;-73
2021/11/04 08:06:00;;;;;;;45.20;22.20;;;;;;;8.64;100.00;99305.00;708810;1186;113961;-72
2021/11/04 08:21:02;;;;;;;44.40;22.70;;;;;;;8.69;100.00;99292.31;708958;1186;114428;-73
2021/11/04 08:36:05;;;;;;;55.93;24.20;;;;;;;9.01;100.00;99304.07;708978;1209;115064;-75
2021/11/04 08:51:08;;;;;;;31.30;17.75;;;;;;;9.18;100.00;99273.64;709116;1184;114421;-76
2021/11/04 09:06:10;;;;;;;30.20;14.90;;;;;;;9.24;100.00;99246.88;709222;1203;114069;-75
2021/11/04 09:21:13;;;;;;;44.50;22.10;;;;;;;9.36;100.00;99210.81;709505;1212;113898;-74
2021/11/04 09:36:15;;;;;;;42.05;18.55;;;;;;;9.56;100.00;99194.91;708895;1209;113989;-75
2021/11/04 09:51:19;;;;;;;40.80;16.60;;;;;;;9.83;100.00;99171.14;709242;1212;113975;-76
2021/11/04 10:06:32;;;;;;;26.93;13.03;;;;;;;9.97;100.00;99146.13;709161;1190;114021;-75
2021/11/04 10:21:40;;;;;;;39.60;20.00;;;;;;;10.14;100.00;99115.55;708680;1187;114343;-75
2021/11/04 10:36:44;;;;;;;44.50;19.40;;;;;;;10.23;100.00;99082.31;708844;1209;114619;-74
2021/11/04 10:52:02;;;;;;;70.30;30.07;;;;;;;10.48;100.00;99062.20;709138;1209;114883;-74
2021/11/04 11:07:04;;;;;;;66.40;30.30;;;;;;;10.57;100.00;99031.55;709383;1184;114113;-76
2021/11/04 11:22:08;;;;;;;80.40;38.15;;;;;;;10.66;100.00;99000.88;708993;1212;114233;-74
2021/11/04 11:37:14;;;;;;;61.75;34.35;;;;;;;10.59;100.00;99013.03;708900;1187;114379;-75
2021/11/04 11:52:54;;;;;;;26.40;14.70;;;;;;;10.46;100.00;98988.12;708990;1211;115052;-73
2021/11/04 12:08:08;;;;;;;36.65;18.65;;;;;;;10.38;100.00;98942.77;708995;1187;114530;-73
2021/11/04 12:23:11;;;;;;;27.35;14.25;;;;;;;10.23;100.00;98880.51;709466;1188;114058;-75
2021/11/04 12:38:38;;;;;;;28.00;15.25;;;;;;;10.21;100.00;98886.90;709332;1187;114265;-73
2021/11/04 12:53:56;;;;;;;58.23;29.57;;;;;;;10.16;100.00;98861.18;709154;1212;115300;-72
2021/11/04 13:09:06;;;;;;;56.45;31.95;;;;;;;10.15;100.00;98775.72;708943;1212;114546;-75
2021/11/04 13:24:10;;;;;;;48.80;22.15;;;;;;;10.22;100.00;98754.88;708906;1187;114308;-74
2021/11/04 13:39:13;;;;;;;39.15;18.65;;;;;;;10.51;100.00;98763.97;715232;1209;114233;-73
2021/11/04 13:54:19;;;;;;;23.60;12.40;;;;;;;10.76;100.00;98757.58;708974;1187;114215;-71
2021/11/04 14:09:28;;;;;;;21.80;11.30;;;;;;;10.73;100.00;98721.21;709467;1188;115069;-70
2021/11/04 14:24:30;;;;;;;26.90;14.05;;;;;;;10.75;100.00;98713.97;710026;1197;114434;-70
2021/11/04 14:39:32;;;;;;;32.40;16.50;;;;;;;10.82;100.00;98714.91;709150;1212;114291;-71
2021/11/04 14:54:35;;;;;;;31.90;18.30;;;;;;;11.03;100.00;98708.19;709251;1209;114391;-71
2021/11/04 15:09:38;;;;;;;96.37;84.57;;;;;;;11.12;100.00;98703.69;709381;1212;114375;-69
2021/11/04 15:24:40;;;;;;;46.07;22.90;;;;;;;10.98;100.00;98673.81;708987;1187;114894;-70
2021/11/04 15:39:43;;;;;;;39.50;18.40;;;;;;;11.15;100.00;98664.80;708874;1209;114322;-70
2021/11/04 15:54:46;;;;;;;32.00;16.30;;;;;;;11.30;100.00;98669.25;709582;1209;114365;-71
2021/11/04 16:09:49;;;;;;;38.27;18.40;;;;;;;11.31;100.00;98671.69;709157;1202;114282;-73
2021/11/04 16:24:53;;;;;;;40.20;19.95;;;;;;;11.27;100.00;98662.55;709130;1212;115608;-73
2021/11/04 16:39:56;;;;;;;49.50;21.50;;;;;;;11.42;100.00;98659.93;709496;1186;114359;-74
2021/11/04 16:54:58;;;;;;;65.45;24.55;;;;;;;11.53;100.00;98670.98;709178;1212;114972;-73
2021/11/04 17:10:02;;;;;;;54.20;24.15;;;;;;;11.86;100.00;98684.55;709133;1212;114443;-73
2021/11/04 17:25:09;;;;;;;66.90;34.10;;;;;;;12.16;100.00;98721.35;708966;1209;115741;-73
2021/11/04 17:40:13;;;;;;;24.80;10.30;;;;;;;12.05;100.00;98756.81;708820;1209;114398;-78
2021/11/04 17:55:17;;;;;;;6.70;4.00;;;;;;;11.53;100.00;98778.66;709235;1187;113856;-77
2021/11/04 18:10:21;;;;;;;56.60;19.50;;;;;;;11.40;100.00;98793.21;710775;1187;114302;-74
2021/11/04 18:25:24;;;;;;;7.60;3.40;;;;;;;11.03;100.00;98818.39;709204;1184;114309;-74
2021/11/04 18:40:30;;;;;;;7.70;4.70;;;;;;;10.60;100.00;98852.09;709115;1208;114475;-77
2021/11/04 18:55:33;;;;;;;3.80;2.75;;;;;;;10.59;100.00;98876.67;709147;1184;113893;-74
2021/11/04 19:10:38;;;;;;;17.45;8.00;;;;;;;10.62;99.19;98878.94;710008;1185;114077;-75
2021/11/04 19:25:41;;;;;;;6.30;3.50;;;;;;;10.56;100.00;98890.13;709361;1209;113964;-76
2021/11/04 19:40:49;;;;;;;31.60;11.75;;;;;;;10.42;100.00;98887.19;709250;1209;114215;-78
2021/11/04 19:55:53;;;;;;;5.95;3.60;;;;;;;10.32;100.00;98892.61;709412;1209;116055;-72
2021/11/04 20:10:55;;;;;;;186.30;52.30;;;;;;;10.20;99.48;98883.47;709462;1187;113909;-69
2021/11/04 20:25:57;;;;;;;57.33;22.85;;;;;;;10.08;99.79;98909.20;709558;1209;116160;-74
2021/11/04 20:41:04;;;;;;;6.60;3.60;;;;;;;10.18;98.50;98888.05;708963;1209;115621;-74
2021/11/04 20:56:10;;;;;;;4.45;2.70;;;;;;;10.03;98.61;98926.38;709420;1209;114929;-74
2021/11/04 21:11:14;;;;;;;4.10;2.30;;;;;;;10.12;97.97;98907.05;708983;1190;113841;-73
2021/11/04 21:26:18;;;;;;;3.50;2.20;;;;;;;10.14;97.09;98892.80;708644;1209;113679;-74
2021/11/04 21:41:21;;;;;;;5.70;2.60;;;;;;;10.07;96.19;98883.98;708805;1194;113680;-73
2021/11/04 21:56:23;;;;;;;3.15;1.93;;;;;;;10.20;94.49;98854.64;709075;1212;113531;-72
2021/11/04 22:11:26;;;;;;;4.20;2.50;;;;;;;10.21;93.93;98874.60;709042;1186;113556;-73
2021/11/04 22:26:29;;;;;;;5.70;2.50;;;;;;;10.27;93.04;98870.52;708730;1211;115082;-73
2021/11/04 22:41:32;;;;;;;3.90;2.20;;;;;;;10.39;91.09;98879.68;708933;1212;114504;-74
2021/11/04 22:56:34;;;;;;;6.57;2.53;;;;;;;10.39;90.91;98879.68;708977;1191;113665;-73
2021/11/04 23:11:36;;;;;;;5.07;2.20;;;;;;;10.18;91.82;98937.03;709380;1185;113781;-74
2021/11/04 23:26:39;;;;;;;5.05;2.65;;;;;;;10.22;91.10;98922.61;711914;1209;114051;-74
2021/11/04 23:41:43;;;;;;;1.73;1.20;;;;;;;10.15;89.80;98940.80;708681;1209;113609;-75
2021/11/04 23:56:47;;;;;;;1.55;1.20;;;;;;;9.93;88.29;98947.52;708693;1186;113850;-74
